createdAt,value
2019-05-09T00:01:28.946Z,14.50
2019-05-09T00:03:58.727Z,14.50
2019-05-09T00:06:29.023Z,14.50
2019-05-09T00:08:58.766Z,14.50
2019-05-09T00:11:28.555Z,14.40
2019-05-09T00:13:58.310Z,14.40
2019-05-09T00:16:28.503Z,14.40
2019-05-09T00:18:58.247Z,14.40
2019-05-09T00:21:33.799Z,14.40
2019-05-09T00:24:04.972Z,14.40
2019-05-09T00:26:34.814Z,14.40
2019-05-09T00:29:09.722Z,14.40
2019-05-09T00:31:58.518Z,14.40
2019-05-09T00:34:50.145Z,14.40
2019-05-09T00:37:23.848Z,14.40
2019-05-09T00:39:53.746Z,14.40
2019-05-09T00:42:24.106Z,14.30
2019-05-09T00:44:55.427Z,14.30
2019-05-09T00:47:27.444Z,14.30
2019-05-09T00:49:57.289Z,14.30
2019-05-09T00:52:27.626Z,14.30
2019-05-09T00:54:57.909Z,14.30
2019-05-09T00:57:36.813Z,14.30
2019-05-09T01:00:14.298Z,14.30
2019-05-09T01:02:43.587Z,14.20
2019-05-09T01:05:13.422Z,14.20
2019-05-09T01:07:43.809Z,14.20
2019-05-09T01:10:14.530Z,14.20
2019-05-09T01:12:44.344Z,14.10
2019-05-09T01:15:14.113Z,14.10
2019-05-09T01:17:44.250Z,14.10
2019-05-09T01:20:14.680Z,14.10
2019-05-09T01:22:45.263Z,14.10
2019-05-09T01:25:15.003Z,14.10
2019-05-09T01:27:44.844Z,14.10
2019-05-09T01:30:14.614Z,14.10
2019-05-09T01:33:09.014Z,14.10
2019-05-09T01:35:38.819Z,14.00
2019-05-09T01:38:09.076Z,14.00
2019-05-09T01:40:38.879Z,14.00
2019-05-09T01:43:09.124Z,14.00
2019-05-09T01:45:39.377Z,14.00
2019-05-09T01:48:09.131Z,14.00
2019-05-09T01:50:39.384Z,14.00
2019-05-09T01:53:10.468Z,13.90
2019-05-09T01:55:58.757Z,13.90
2019-05-09T01:58:30.498Z,13.90
2019-05-09T02:01:03.585Z,13.90
2019-05-09T02:03:33.678Z,13.90
2019-05-09T02:06:04.333Z,13.90
2019-05-09T02:08:34.631Z,13.90
2019-05-09T02:11:05.158Z,13.90
2019-05-09T02:13:34.938Z,13.90
2019-05-09T02:16:23.463Z,13.90
2019-05-09T02:19:06.364Z,13.90
2019-05-09T02:21:36.158Z,13.90
2019-05-09T02:24:06.042Z,13.80
2019-05-09T02:26:36.934Z,13.80
2019-05-09T02:29:06.690Z,13.80
2019-05-09T02:31:36.716Z,13.80
2019-05-09T02:34:06.493Z,13.80
2019-05-09T02:36:38.530Z,13.70
2019-05-09T02:39:09.220Z,13.70
2019-05-09T02:41:39.191Z,13.70
2019-05-09T02:44:09.421Z,13.70
2019-05-09T02:46:58.789Z,13.70
2019-05-09T02:49:29.251Z,13.60
2019-05-09T02:51:59.503Z,13.60
2019-05-09T02:54:30.047Z,13.60
2019-05-09T02:57:00.509Z,13.60
2019-05-09T02:59:39.485Z,13.60
2019-05-09T03:02:20.305Z,13.60
2019-05-09T03:04:50.055Z,13.60
2019-05-09T03:07:22.504Z,13.60
2019-05-09T03:09:52.268Z,13.70
2019-05-09T03:12:30.789Z,13.60
2019-05-09T03:14:53.461Z,13.60
2019-05-09T03:17:23.677Z,13.60
2019-05-09T03:19:53.457Z,13.60
2019-05-09T03:22:24.367Z,13.60
2019-05-09T03:24:54.111Z,13.60
2019-05-09T03:27:28.945Z,13.60
2019-05-09T03:30:00.399Z,13.50
2019-05-09T03:32:30.285Z,13.60
2019-05-09T03:35:00.030Z,13.50
2019-05-09T03:37:30.445Z,13.50
2019-05-09T03:40:00.375Z,13.50
2019-05-09T03:42:43.121Z,13.50
2019-05-09T03:45:01.586Z,13.50
2019-05-09T03:47:37.725Z,13.40
2019-05-09T03:50:12.180Z,13.40
2019-05-09T03:52:41.978Z,13.40
2019-05-09T03:55:17.692Z,13.40
2019-05-09T03:57:52.562Z,13.30
2019-05-09T04:00:23.043Z,13.30
2019-05-09T04:02:53.135Z,13.30
2019-05-09T04:05:22.952Z,13.30
2019-05-09T04:07:53.093Z,13.30
2019-05-09T04:10:22.892Z,13.30
2019-05-09T04:12:56.498Z,13.30
2019-05-09T04:15:24.831Z,13.30
2019-05-09T04:17:55.104Z,13.20
2019-05-09T04:20:24.940Z,13.20
2019-05-09T04:22:54.706Z,13.20
2019-05-09T04:25:29.102Z,13.20
2019-05-09T04:27:59.780Z,13.20
2019-05-09T04:30:29.579Z,13.20
2019-05-09T04:32:59.357Z,13.20
2019-05-09T04:35:29.557Z,13.20
2019-05-09T04:37:59.874Z,13.30
2019-05-09T04:40:32.049Z,13.30
2019-05-09T04:43:12.023Z,13.30
2019-05-09T04:45:41.886Z,13.30
2019-05-09T04:48:30.541Z,13.30
2019-05-09T04:51:01.650Z,13.30
2019-05-09T04:53:31.919Z,13.30
2019-05-09T04:56:11.059Z,13.30
2019-05-09T04:58:40.800Z,13.30
2019-05-09T05:01:28.206Z,13.40
2019-05-09T05:03:58.702Z,13.40
2019-05-09T05:06:28.508Z,13.40
2019-05-09T05:08:58.753Z,13.40
2019-05-09T05:11:29.078Z,13.40
2019-05-09T05:13:59.214Z,13.40
2019-05-09T05:16:29.044Z,13.50
2019-05-09T05:18:59.370Z,13.50
2019-05-09T05:21:29.611Z,13.50
2019-05-09T05:24:08.550Z,13.50
2019-05-09T05:26:38.333Z,13.50
2019-05-09T05:29:08.554Z,13.50
2019-05-09T05:31:38.966Z,13.50
2019-05-09T05:34:13.899Z,13.60
2019-05-09T05:36:43.699Z,13.60
2019-05-09T05:39:14.144Z,13.60
2019-05-09T05:41:43.897Z,13.60
2019-05-09T05:44:13.698Z,13.60
2019-05-09T05:47:01.159Z,13.60
2019-05-09T05:49:30.956Z,13.70
2019-05-09T05:52:00.728Z,13.70
2019-05-09T05:54:30.525Z,13.70
2019-05-09T05:57:00.294Z,13.70
2019-05-09T05:59:30.084Z,13.70
2019-05-09T06:01:59.840Z,13.70
2019-05-09T06:04:29.817Z,13.80
2019-05-09T06:06:59.621Z,13.80
2019-05-09T06:09:29.523Z,13.80
2019-05-09T06:11:59.360Z,13.80
2019-05-09T06:14:29.775Z,13.80
2019-05-09T06:16:59.637Z,13.90
2019-05-09T06:19:29.538Z,13.90
2019-05-09T06:21:59.375Z,13.90
2019-05-09T06:24:29.757Z,13.90
2019-05-09T06:26:59.483Z,14.00
2019-05-09T06:29:49.928Z,14.00
2019-05-09T06:32:43.132Z,14.00
2019-05-09T06:35:58.680Z,14.00
2019-05-09T06:38:55.543Z,14.10
2019-05-09T06:42:08.566Z,14.10
2019-05-09T06:45:27.573Z,14.10
2019-05-09T06:48:41.511Z,14.10
2019-05-09T06:51:44.056Z,14.10
2019-05-09T06:54:52.300Z,14.10
2019-05-09T06:57:49.039Z,14.10
2019-05-09T07:01:25.403Z,14.10
2019-05-09T07:04:47.618Z,14.10
2019-05-09T07:07:50.274Z,14.10
2019-05-09T07:10:58.572Z,14.20
2019-05-09T07:14:38.201Z,14.10
2019-05-09T07:17:20.965Z,14.20
2019-05-09T07:20:38.644Z,14.20
2019-05-09T07:23:19.564Z,14.20
2019-05-09T07:26:14.865Z,14.30
2019-05-09T07:28:48.227Z,14.30
2019-05-09T07:31:37.913Z,14.30
2019-05-09T07:34:27.739Z,14.40
2019-05-09T07:36:58.173Z,14.50
2019-05-09T07:39:27.917Z,14.50
2019-05-09T07:41:58.519Z,14.60
2019-05-09T07:44:37.907Z,14.70
2019-05-09T07:47:01.284Z,14.70
2019-05-09T07:49:32.191Z,14.80
2019-05-09T07:52:06.845Z,14.90
2019-05-09T07:54:33.174Z,14.90
2019-05-09T07:57:03.353Z,15.00
2019-05-09T07:59:34.165Z,15.00
2019-05-09T08:02:04.071Z,15.10
2019-05-09T08:04:33.636Z,15.10
2019-05-09T08:07:03.261Z,15.20
2019-05-09T08:09:32.830Z,15.30
2019-05-09T08:12:02.435Z,15.30
2019-05-09T08:14:33.428Z,15.40
2019-05-09T08:17:03.128Z,15.40
2019-05-09T08:19:33.197Z,15.50
2019-05-09T08:22:02.765Z,15.50
2019-05-09T08:24:32.361Z,15.60
2019-05-09T08:27:02.660Z,15.60
2019-05-09T08:29:32.261Z,15.70
2019-05-09T08:32:02.288Z,15.70
2019-05-09T08:34:31.895Z,15.80
2019-05-09T08:37:01.902Z,15.80
2019-05-09T08:39:31.873Z,15.90
2019-05-09T08:42:01.761Z,15.90
2019-05-09T08:44:31.454Z,16.00
2019-05-09T08:47:01.377Z,16.00
2019-05-09T08:49:46.455Z,16.10
2019-05-09T08:52:16.374Z,16.10
2019-05-09T08:54:51.436Z,16.20
2019-05-09T08:57:21.425Z,16.20
2019-05-09T08:59:51.348Z,16.20
2019-05-09T09:02:22.537Z,16.30
2019-05-09T09:04:53.015Z,16.30
2019-05-09T09:07:22.587Z,16.30
2019-05-09T09:09:52.965Z,16.40
2019-05-09T09:12:33.052Z,16.40
2019-05-09T09:14:54.973Z,16.50
2019-05-09T09:17:24.539Z,16.60
2019-05-09T09:19:54.165Z,16.60
2019-05-09T09:22:23.754Z,16.70
2019-05-09T09:24:53.828Z,16.70
2019-05-09T09:27:24.272Z,16.70
2019-05-09T09:29:54.425Z,16.80
2019-05-09T09:32:23.997Z,16.80
2019-05-09T09:34:53.606Z,16.80
2019-05-09T09:37:24.024Z,16.80
2019-05-09T09:39:54.402Z,16.80
2019-05-09T09:42:23.972Z,16.80
2019-05-09T09:44:53.601Z,16.90
2019-05-09T09:47:23.557Z,16.90
2019-05-09T09:49:55.239Z,16.90
2019-05-09T09:52:24.985Z,16.90
2019-05-09T09:54:54.637Z,16.90
2019-05-09T09:57:24.722Z,16.90
2019-05-09T09:59:58.628Z,17.00
2019-05-09T10:02:34.205Z,17.00
2019-05-09T10:05:04.378Z,17.10
2019-05-09T10:07:34.441Z,17.20
2019-05-09T10:10:04.505Z,17.20
2019-05-09T10:12:34.681Z,17.20
2019-05-09T10:15:14.845Z,17.30
2019-05-09T10:18:03.620Z,17.40
2019-05-09T10:20:48.480Z,17.40
2019-05-09T10:23:21.223Z,17.50
2019-05-09T10:25:49.479Z,17.50
2019-05-09T10:28:21.460Z,17.60
2019-05-09T10:30:50.778Z,17.60
2019-05-09T10:33:20.399Z,17.60
2019-05-09T10:35:50.437Z,17.60
2019-05-09T10:38:20.706Z,17.70
2019-05-09T10:40:53.150Z,17.70
2019-05-09T10:43:38.580Z,17.70
2019-05-09T10:46:23.061Z,17.70
2019-05-09T10:48:58.910Z,17.70
2019-05-09T10:51:28.977Z,17.70
2019-05-09T10:53:59.635Z,17.70
2019-05-09T10:56:30.032Z,17.70
2019-05-09T10:59:00.414Z,17.70
2019-05-09T11:01:30.313Z,17.70
2019-05-09T11:04:00.304Z,17.70
2019-05-09T11:06:29.856Z,17.70
2019-05-09T11:08:59.486Z,17.70
2019-05-09T11:11:29.097Z,17.70
2019-05-09T11:13:59.203Z,17.80
2019-05-09T11:16:41.953Z,17.90
2019-05-09T11:19:00.218Z,18.00
2019-05-09T11:21:30.148Z,18.10
2019-05-09T11:23:59.835Z,18.20
2019-05-09T11:26:29.529Z,18.20
2019-05-09T11:28:59.165Z,18.30
2019-05-09T11:31:29.671Z,18.30
2019-05-09T11:33:59.593Z,18.30
2019-05-09T11:36:30.260Z,18.30
2019-05-09T11:39:00.774Z,18.30
2019-05-09T11:41:30.577Z,18.30
2019-05-09T11:44:00.182Z,18.40
2019-05-09T11:46:29.776Z,18.40
2019-05-09T11:49:00.408Z,18.50
2019-05-09T11:51:30.408Z,18.60
2019-05-09T11:54:00.017Z,18.60
2019-05-09T11:56:30.497Z,18.70
2019-05-09T11:59:00.097Z,18.70
2019-05-09T12:01:29.669Z,18.70
2019-05-09T12:03:59.965Z,18.60
2019-05-09T12:06:29.991Z,18.60
2019-05-09T12:09:00.450Z,18.60
2019-05-09T12:11:30.501Z,18.50
2019-05-09T12:14:00.130Z,18.50
2019-05-09T12:16:30.127Z,18.40
2019-05-09T12:19:00.581Z,18.30
2019-05-09T12:21:30.868Z,18.20
2019-05-09T12:24:01.009Z,18.10
2019-05-09T12:26:30.659Z,18.00
2019-05-09T12:29:00.248Z,18.00
2019-05-09T12:31:29.909Z,18.00
2019-05-09T12:33:59.762Z,17.90
2019-05-09T12:36:29.492Z,17.90
2019-05-09T12:38:59.580Z,17.90
2019-05-09T12:41:31.654Z,17.90
2019-05-09T12:44:01.181Z,17.90
2019-05-09T12:46:30.793Z,18.00
2019-05-09T12:49:00.381Z,18.00
2019-05-09T12:51:30.814Z,18.10
2019-05-09T12:54:01.187Z,18.20
2019-05-09T12:56:31.167Z,18.30
2019-05-09T12:59:01.161Z,18.40
2019-05-09T13:01:31.245Z,18.50
2019-05-09T13:04:01.421Z,18.70
2019-05-09T13:06:31.287Z,18.80
2019-05-09T13:09:01.173Z,19.00
2019-05-09T13:11:31.114Z,19.10
2019-05-09T13:14:01.118Z,19.20
2019-05-09T13:16:53.840Z,19.30
2019-05-09T13:19:25.106Z,19.20
2019-05-09T13:21:54.761Z,19.30
2019-05-09T13:24:28.215Z,19.30
2019-05-09T13:26:57.409Z,19.30
2019-05-09T13:29:29.503Z,19.30
2019-05-09T13:31:58.681Z,19.30
2019-05-09T13:34:28.692Z,19.30
2019-05-09T13:36:59.008Z,19.30
2019-05-09T13:39:28.881Z,19.40
2019-05-09T13:41:58.729Z,19.40
2019-05-09T13:44:28.323Z,19.50
2019-05-09T13:46:58.550Z,19.50
2019-05-09T13:49:29.221Z,19.50
2019-05-09T13:52:04.304Z,19.50
2019-05-09T13:54:30.400Z,19.50
2019-05-09T13:57:01.499Z,19.50
2019-05-09T13:59:31.821Z,19.50
2019-05-09T14:02:02.637Z,19.40
2019-05-09T14:04:32.216Z,19.40
2019-05-09T14:07:01.836Z,19.30
2019-05-09T14:09:31.912Z,19.30
2019-05-09T14:12:02.415Z,19.20
2019-05-09T14:14:31.985Z,19.10
2019-05-09T14:17:02.077Z,19.00
2019-05-09T14:19:45.168Z,18.80
2019-05-09T14:22:03.598Z,18.70
2019-05-09T14:24:33.652Z,18.60
2019-05-09T14:27:03.284Z,18.40
2019-05-09T14:29:33.300Z,18.30
2019-05-09T14:32:04.973Z,18.20
2019-05-09T14:34:34.465Z,18.10
2019-05-09T14:37:04.693Z,18.00
2019-05-09T14:39:35.132Z,17.90
2019-05-09T14:42:05.173Z,17.80
2019-05-09T14:44:37.578Z,17.70
2019-05-09T14:47:08.052Z,17.70
2019-05-09T14:49:43.246Z,17.60
2019-05-09T14:52:09.541Z,17.60
2019-05-09T14:54:39.317Z,17.50
2019-05-09T14:57:09.627Z,17.50
2019-05-09T14:59:39.525Z,17.50
2019-05-09T15:02:09.477Z,17.40
2019-05-09T15:04:39.442Z,17.40
2019-05-09T15:07:09.020Z,17.40
2019-05-09T15:09:38.625Z,17.40
2019-05-09T15:12:08.220Z,17.40
2019-05-09T15:14:38.421Z,17.30
2019-05-09T15:17:08.829Z,17.30
2019-05-09T15:19:38.741Z,17.30
2019-05-09T15:22:08.754Z,17.30
2019-05-09T15:24:38.946Z,17.30
2019-05-09T15:27:08.635Z,17.30
2019-05-09T15:29:39.114Z,17.30
2019-05-09T15:32:12.181Z,17.30
2019-05-09T15:34:42.401Z,17.30
2019-05-09T15:37:12.269Z,17.30
2019-05-09T15:39:41.910Z,17.30
2019-05-09T15:42:12.480Z,17.30
2019-05-09T15:44:42.152Z,17.30
2019-05-09T15:47:18.315Z,17.40
2019-05-09T15:49:49.539Z,17.40
2019-05-09T15:52:19.679Z,17.40
2019-05-09T15:54:49.283Z,17.30
2019-05-09T15:57:18.893Z,17.40
2019-05-09T15:59:48.931Z,17.40
2019-05-09T16:02:19.304Z,17.50
2019-05-09T16:04:49.508Z,17.50
2019-05-09T16:07:19.720Z,17.50
2019-05-09T16:09:49.369Z,17.50
2019-05-09T16:12:23.308Z,17.60
2019-05-09T16:14:50.487Z,17.60
2019-05-09T16:17:20.505Z,17.60
2019-05-09T16:19:50.728Z,17.60
2019-05-09T16:22:20.302Z,17.60
2019-05-09T16:24:50.304Z,17.60
2019-05-09T16:27:20.300Z,17.70
2019-05-09T16:29:50.377Z,17.60
2019-05-09T16:32:20.000Z,17.60
2019-05-09T16:34:50.052Z,17.60
2019-05-09T16:37:20.149Z,17.60
2019-05-09T16:39:50.190Z,17.60
2019-05-09T16:42:19.952Z,17.50
2019-05-09T16:44:49.955Z,17.50
2019-05-09T16:47:21.554Z,17.50
2019-05-09T16:49:51.634Z,17.50
2019-05-09T16:52:21.840Z,17.50
2019-05-09T16:54:54.032Z,17.40
2019-05-09T16:57:23.625Z,17.40
2019-05-09T16:59:53.789Z,17.40
2019-05-09T17:02:24.948Z,17.30
2019-05-09T17:04:57.577Z,17.30
2019-05-09T17:07:27.797Z,17.30
2019-05-09T17:09:58.372Z,17.20
2019-05-09T17:12:28.745Z,17.20
2019-05-09T17:14:59.691Z,17.20
2019-05-09T17:17:29.556Z,17.20
2019-05-09T17:19:59.467Z,17.10
2019-05-09T17:22:48.280Z,17.10
2019-05-09T17:25:18.749Z,17.10
2019-05-09T17:27:49.186Z,17.10
2019-05-09T17:30:19.220Z,17.10
2019-05-09T17:32:49.789Z,17.00
2019-05-09T17:35:19.367Z,17.00
2019-05-09T17:37:49.301Z,17.00
2019-05-09T17:40:19.356Z,17.00
2019-05-09T17:42:50.108Z,16.90
2019-05-09T17:45:20.079Z,16.90
2019-05-09T17:47:51.737Z,16.90
2019-05-09T17:50:24.268Z,16.90
2019-05-09T17:52:54.261Z,16.90
2019-05-09T17:55:24.289Z,16.90
2019-05-09T17:57:54.220Z,16.90
2019-05-09T18:00:24.317Z,16.80
2019-05-09T18:02:54.340Z,16.80
2019-05-09T18:05:24.332Z,16.80
2019-05-09T18:07:54.420Z,16.80
2019-05-09T18:10:24.369Z,16.70
2019-05-09T18:12:55.349Z,16.70
2019-05-09T18:15:25.401Z,16.70
2019-05-09T18:17:55.030Z,16.70
2019-05-09T18:20:24.643Z,16.70
2019-05-09T18:22:54.325Z,16.70
2019-05-09T18:25:24.378Z,16.70
2019-05-09T18:27:54.864Z,16.60
2019-05-09T18:30:24.947Z,16.60
2019-05-09T18:33:07.578Z,16.60
2019-05-09T18:35:38.005Z,16.50
2019-05-09T18:38:08.845Z,16.50
2019-05-09T18:40:39.396Z,16.50
2019-05-09T18:43:09.377Z,16.50
2019-05-09T18:45:39.462Z,16.50
2019-05-09T18:48:09.076Z,16.50
2019-05-09T18:50:39.084Z,16.40
2019-05-09T18:53:09.728Z,16.40
2019-05-09T18:55:39.621Z,16.40
2019-05-09T18:58:09.576Z,16.40
2019-05-09T19:00:39.637Z,16.40
2019-05-09T19:03:09.705Z,16.40
2019-05-09T19:05:39.415Z,16.30
2019-05-09T19:08:09.097Z,16.30
2019-05-09T19:10:38.769Z,16.30
2019-05-09T19:13:08.529Z,16.30
2019-05-09T19:15:58.490Z,16.30
2019-05-09T19:18:47.198Z,16.20
2019-05-09T19:21:20.807Z,16.30
2019-05-09T19:23:50.864Z,16.30
2019-05-09T19:26:39.470Z,16.20
2019-05-09T19:29:09.874Z,16.20
2019-05-09T19:31:40.398Z,16.20
2019-05-09T19:34:11.244Z,16.10
2019-05-09T19:36:41.451Z,16.10
2019-05-09T19:39:11.043Z,16.10
2019-05-09T19:41:40.868Z,16.10
2019-05-09T19:44:11.072Z,16.10
2019-05-09T19:46:41.363Z,16.10
2019-05-09T19:49:11.505Z,16.10
2019-05-09T19:51:41.657Z,16.10
2019-05-09T19:54:11.270Z,16.10
2019-05-09T19:56:40.911Z,16.10
2019-05-09T19:59:10.942Z,16.00
2019-05-09T20:01:41.470Z,16.00
2019-05-09T20:04:27.658Z,16.00
2019-05-09T20:06:57.717Z,16.00
2019-05-09T20:09:34.013Z,16.00
2019-05-09T20:12:16.244Z,16.00
2019-05-09T20:14:49.252Z,16.00
2019-05-09T20:17:18.877Z,16.00
2019-05-09T20:19:48.816Z,16.00
2019-05-09T20:22:18.427Z,16.00
2019-05-09T20:24:49.084Z,16.00
2019-05-09T20:27:18.732Z,16.00
2019-05-09T20:29:48.392Z,16.00
2019-05-09T20:32:18.452Z,15.90
2019-05-09T20:34:48.003Z,15.90
2019-05-09T20:37:17.617Z,15.90
2019-05-09T20:39:48.217Z,16.00
2019-05-09T20:42:18.357Z,15.90
2019-05-09T20:44:48.279Z,15.90
2019-05-09T20:47:18.166Z,15.90
2019-05-09T20:49:47.965Z,15.90
2019-05-09T20:52:21.296Z,15.90
2019-05-09T20:54:49.201Z,15.80
2019-05-09T20:57:19.038Z,15.80
2019-05-09T20:59:49.549Z,15.80
2019-05-09T21:02:19.753Z,15.80
2019-05-09T21:04:49.937Z,15.80
2019-05-09T21:07:20.148Z,15.80
2019-05-09T21:09:49.893Z,15.80
2019-05-09T21:12:20.209Z,15.80
2019-05-09T21:14:49.962Z,15.80
2019-05-09T21:17:19.842Z,15.80
2019-05-09T21:19:50.007Z,15.80
2019-05-09T21:22:19.769Z,15.80
2019-05-09T21:24:49.615Z,15.80
2019-05-09T21:27:19.739Z,15.80
2019-05-09T21:29:49.532Z,15.70
2019-05-09T21:32:19.779Z,15.70
2019-05-09T21:34:49.712Z,15.70
2019-05-09T21:37:19.283Z,15.70
2019-05-09T21:39:48.899Z,15.70
2019-05-09T21:42:18.965Z,15.70
2019-05-09T21:44:48.905Z,15.60
2019-05-09T21:47:18.552Z,15.60
2019-05-09T21:49:48.254Z,15.60
2019-05-09T21:52:17.775Z,15.60
2019-05-09T21:54:47.869Z,15.60
2019-05-09T21:57:17.501Z,15.60
2019-05-09T21:59:47.112Z,15.60
2019-05-09T22:02:16.683Z,15.60
2019-05-09T22:04:47.210Z,15.60
2019-05-09T22:07:16.789Z,15.60
2019-05-09T22:09:46.513Z,15.60
2019-05-09T22:12:16.417Z,15.60
2019-05-09T22:14:46.052Z,15.60
2019-05-09T22:17:21.777Z,15.60
2019-05-09T22:19:51.813Z,15.60
2019-05-09T22:22:21.385Z,15.60
2019-05-09T22:24:51.543Z,15.60
2019-05-09T22:27:21.529Z,15.50
2019-05-09T22:29:51.197Z,15.50
2019-05-09T22:32:22.231Z,15.50
2019-05-09T22:34:51.951Z,15.50
2019-05-09T22:37:21.549Z,15.50
2019-05-09T22:39:51.187Z,15.50
2019-05-09T22:42:21.148Z,15.50
2019-05-09T22:44:50.792Z,15.50
2019-05-09T22:47:20.977Z,15.50
2019-05-09T22:49:52.731Z,15.50
2019-05-09T22:52:22.382Z,15.50
2019-05-09T22:54:52.517Z,15.50
2019-05-09T22:57:22.590Z,15.50
2019-05-09T22:59:52.214Z,15.50
2019-05-09T23:02:22.381Z,15.50
2019-05-09T23:04:51.985Z,15.50
2019-05-09T23:07:21.561Z,15.50
2019-05-09T23:09:51.639Z,15.40
2019-05-09T23:12:21.697Z,15.50
2019-05-09T23:14:51.721Z,15.40
2019-05-09T23:17:21.300Z,15.40
2019-05-09T23:19:50.905Z,15.40
2019-05-09T23:22:21.589Z,15.40
2019-05-09T23:24:51.202Z,15.40
2019-05-09T23:27:21.145Z,15.40
2019-05-09T23:29:50.816Z,15.40
2019-05-09T23:32:37.573Z,15.40
2019-05-09T23:35:07.306Z,15.40
2019-05-09T23:37:36.933Z,15.40
2019-05-09T23:40:06.928Z,15.30
2019-05-09T23:42:37.361Z,15.30
2019-05-09T23:45:07.305Z,15.30
2019-05-09T23:47:36.922Z,15.30
2019-05-09T23:50:07.569Z,15.30
2019-05-09T23:52:37.185Z,15.30
2019-05-09T23:55:24.465Z,15.30
2019-05-09T23:58:12.197Z,15.30
